Time;durP1;ratioP1;P1;durP2;ratioP2;P2;SDS_P1;SDS_P2;PMS_P1;PMS_P2;Temp;Humidity;BMP_temperature;BMP_pressure;BME280_temperature;BME280_humidity;BME280_pressure;Samples;Min_cycle;Max_cycle;Signal;HPM_P1;HPM_P2
2022/03/23 00:01:18;;;;;;;;;;;;;;;18.35;56.94;102422.78;5063783;28;1683;-38
2022/03/23 00:03:45;;;;;;;;;;;;;;;18.37;57.12;102412.81;5067546;28;1774;-38
2022/03/23 00:06:13;;;;;;;;;;;;;;;18.41;56.86;102416.19;5065599;28;1786;-38
2022/03/23 00:08:42;;;;;;;;;;;;;;;18.39;56.96;102412.75;5063440;28;1572;-38
2022/03/23 00:11:08;;;;;;;;;;;;;;;18.42;56.87;102417.91;5063948;28;1906;-39
2022/03/23 00:13:34;;;;;;;;;;;;;;;18.42;56.93;102405.41;5058743;28;1576;-38
2022/03/23 00:16:01;;;;;;;;;;;;;;;18.41;56.52;102405.47;5067819;28;1676;-38
2022/03/23 00:18:28;;;;;;;;;;;;;;;18.33;56.88;102413.09;5064788;28;1472;-39
2022/03/23 00:20:55;;;;;;;;;;;;;;;18.35;57.50;102421.91;5065185;28;1452;-39
2022/03/23 00:23:21;;;;;;;;;;;;;;;18.34;56.93;102417.50;5068918;28;1525;-38
2022/03/23 00:25:49;;;;;;;;;;;;;;;18.33;56.63;102410.44;5058729;28;1794;-38
2022/03/23 00:28:16;;;;;;;;;;;;;;;18.31;56.56;102413.19;5066545;28;1541;-38
2022/03/23 00:30:42;;;;;;;;;;;;;;;18.34;56.77;102404.09;5066328;28;1902;-39
2022/03/23 00:33:09;;;;;;;;;;;;;;;18.36;56.62;102399.53;5070688;28;1526;-38
2022/03/23 00:35:35;;;;;;;;;;;;;;;18.33;56.55;102405.06;5065363;28;1425;-39
2022/03/23 00:38:02;;;;;;;;;;;;;;;18.34;56.63;102404.09;5070421;28;1511;-38
2022/03/23 00:40:29;;;;;;;;;;;;;;;18.31;56.89;102398.94;5067065;28;1642;-38
2022/03/23 00:42:59;;;;;;;;;;;;;;;18.29;56.53;102402.56;5064693;28;1603;-39
2022/03/23 00:45:26;;;;;;;;;;;;;;;18.33;56.59;102397.03;5064373;28;1576;-38
2022/03/23 00:47:52;;;;;;;;;;;;;;;18.34;56.60;102393.41;5066597;28;1270;-38
2022/03/23 00:50:19;;;;;;;;;;;;;;;18.37;56.76;102393.22;5070090;28;1898;-38
2022/03/23 00:52:47;;;;;;;;;;;;;;;18.34;55.81;102401.44;5064628;28;1451;-38
2022/03/23 00:55:15;;;;;;;;;;;;;;;18.31;56.49;102401.63;5060782;28;1756;-38
2022/03/23 00:57:41;;;;;;;;;;;;;;;18.36;56.64;102405.72;5064686;28;1687;-39
2022/03/23 01:00:12;;;;;;;;;;;;;;;18.32;56.31;102396.16;5067974;28;1727;-38
2022/03/23 01:02:39;;;;;;;;;;;;;;;18.44;56.16;102400.81;5067805;28;1610;-38
2022/03/23 01:05:06;;;;;;;;;;;;;;;18.40;55.80;102404.63;5062373;28;1749;-40
2022/03/23 01:07:32;;;;;;;;;;;;;;;18.42;56.08;102400.03;5071618;28;1950;-38
2022/03/23 01:09:59;;;;;;;;;;;;;;;18.37;56.60;102399.44;5065892;28;1976;-38
2022/03/23 01:12:25;;;;;;;;;;;;;;;18.42;56.50;102409.88;5066767;28;1796;-39
2022/03/23 01:14:52;;;;;;;;;;;;;;;18.37;56.77;102396.75;5065967;28;1523;-39
2022/03/23 01:17:19;;;;;;;;;;;;;;;18.39;56.74;102404.72;5063232;28;1523;-38
2022/03/23 01:19:46;;;;;;;;;;;;;;;18.45;56.73;102388.28;5067098;28;1892;-39
2022/03/23 01:22:12;;;;;;;;;;;;;;;18.42;56.96;102412.53;5060363;28;1584;-39
2022/03/23 01:24:39;;;;;;;;;;;;;;;18.42;56.93;102412.53;5070883;28;1358;-38
2022/03/23 01:27:05;;;;;;;;;;;;;;;18.40;56.95;102409.97;5062765;28;1860;-39
2022/03/23 01:29:32;;;;;;;;;;;;;;;18.45;56.97;102407.88;5062293;28;1906;-39
2022/03/23 01:31:58;;;;;;;;;;;;;;;18.40;56.82;102404.63;5066037;28;2041;-38
2022/03/23 01:34:26;;;;;;;;;;;;;;;18.40;56.88;102403.75;5067588;28;1766;-38
2022/03/23 01:36:52;;;;;;;;;;;;;;;18.40;56.61;102404.63;5069334;28;1581;-38
2022/03/23 01:39:19;;;;;;;;;;;;;;;18.42;56.86;102404.50;5063761;28;1385;-38
2022/03/23 01:41:45;;;;;;;;;;;;;;;18.40;56.81;102409.09;5063212;28;1656;-39
2022/03/23 01:44:13;;;;;;;;;;;;;;;18.44;56.81;102416.88;5064510;28;1367;-39
2022/03/23 01:46:58;;;;;;;;;;;;;;;18.40;56.76;102399.25;5062853;28;1610;-40
2022/03/23 01:49:26;;;;;;;;;;;;;;;18.40;56.38;102396.59;5070420;28;1601;-39
2022/03/23 01:51:52;;;;;;;;;;;;;;;18.39;56.99;102405.56;5065301;28;1910;-39
2022/03/23 01:54:18;;;;;;;;;;;;;;;18.40;56.54;102398.38;5068857;28;1521;-39
2022/03/23 01:56:45;;;;;;;;;;;;;;;18.47;57.18;102415.81;5068933;28;1765;-39
2022/03/23 01:59:12;;;;;;;;;;;;;;;18.45;56.07;102409.69;5063645;28;1599;-39
2022/03/23 02:01:39;;;;;;;;;;;;;;;18.44;56.34;102416.88;5059363;28;1500;-41
2022/03/23 02:04:06;;;;;;;;;;;;;;;18.43;56.16;102414.28;5065243;28;1070;-38
2022/03/23 02:06:34;;;;;;;;;;;;;;;18.42;56.59;102413.44;5064409;28;1825;-40
2022/03/23 02:09:00;;;;;;;;;;;;;;;18.42;56.49;102412.53;5054831;28;1452;-39
2022/03/23 02:11:27;;;;;;;;;;;;;;;18.39;56.35;102402.03;5066318;28;2061;-39
2022/03/23 02:13:54;;;;;;;;;;;;;;;18.53;56.32;102403.88;5066788;28;1273;-39
2022/03/23 02:16:20;;;;;;;;;;;;;;;18.46;56.53;102414.97;5066091;28;1862;-38
2022/03/23 02:18:47;;;;;;;;;;;;;;;18.42;56.89;102407.19;5065020;28;1743;-39
2022/03/23 02:21:14;;;;;;;;;;;;;;;18.47;56.96;102405.97;5063566;28;1955;-38
2022/03/23 02:23:42;;;;;;;;;;;;;;;18.42;57.35;102408.06;5055063;28;1589;-39
2022/03/23 02:26:09;;;;;;;;;;;;;;;18.45;56.76;102407.03;5062430;28;1004;-38
2022/03/23 02:28:36;;;;;;;;;;;;;;;18.44;57.01;102405.28;5061528;28;1789;-38
2022/03/23 02:31:03;;;;;;;;;;;;;;;18.48;56.52;102412.19;5067261;28;1910;-38
2022/03/23 02:33:29;;;;;;;;;;;;;;;18.48;56.76;102406.81;5063408;28;1476;-38
2022/03/23 02:35:55;;;;;;;;;;;;;;;18.43;56.73;102411.59;5066865;28;1831;-39
2022/03/23 02:38:22;;;;;;;;;;;;;;;18.40;56.76;102407.31;5062510;28;1007;-38
2022/03/23 02:40:50;;;;;;;;;;;;;;;18.42;57.04;102423.25;5064802;28;1912;-38
2022/03/23 02:43:16;;;;;;;;;;;;;;;18.42;56.75;102413.44;5067036;28;1906;-38
2022/03/23 02:45:43;;;;;;;;;;;;;;;18.39;57.04;102423.47;5063179;28;1476;-38
2022/03/23 02:48:09;;;;;;;;;;;;;;;18.39;56.88;102413.59;5062838;28;1416;-38
2022/03/23 02:50:35;;;;;;;;;;;;;;;18.37;57.14;102410.16;5063588;28;1965;-39
2022/03/23 03:04:14;;;;;;;;;;;;;;;18.40;56.67;102398.38;5047951;28;1727;-38
2022/03/23 03:06:41;;;;;;;;;;;;;;;18.39;57.11;102400.22;5051746;28;1985;-38
2022/03/23 03:09:07;;;;;;;;;;;;;;;18.38;56.89;102411.00;5050802;28;1875;-38
2022/03/23 03:11:34;;;;;;;;;;;;;;;18.37;56.77;102422.69;5049822;28;1977;-38
2022/03/23 03:14:02;;;;;;;;;;;;;;;18.44;56.39;102421.34;5055171;28;2066;-40
2022/03/23 03:16:28;;;;;;;;;;;;;;;18.39;56.11;102410.91;5051554;28;1081;-38
2022/03/23 03:18:55;;;;;;;;;;;;;;;18.47;56.43;102407.78;5051503;28;1751;-38
2022/03/23 03:21:21;;;;;;;;;;;;;;;18.40;56.07;102404.63;5043107;28;1999;-38
2022/03/23 03:23:48;;;;;;;;;;;;;;;18.45;56.21;102401.66;5048242;28;1081;-38
2022/03/23 03:26:15;;;;;;;;;;;;;;;18.35;56.70;102395.13;5045768;28;1972;-38
2022/03/23 03:28:42;;;;;;;;;;;;;;;18.38;56.62;102395.81;5052815;28;1625;-38
2022/03/23 03:31:11;;;;;;;;;;;;;;;18.44;56.41;102394.56;5051850;28;1979;-38
2022/03/23 03:33:37;;;;;;;;;;;;;;;18.45;56.35;102396.31;5048177;28;1651;-39
2022/03/23 03:36:05;;;;;;;;;;;;;;;18.40;56.89;102393.03;5048130;28;1762;-39
2022/03/23 03:38:32;;;;;;;;;;;;;;;18.36;56.02;102396.84;5048436;28;1178;-38
2022/03/23 03:40:58;;;;;;;;;;;;;;;18.37;57.20;102393.22;5046152;28;1616;-39
2022/03/23 03:43:25;;;;;;;;;;;;;;;18.32;56.57;102396.16;5047887;28;1954;-38
2022/03/23 03:45:51;;;;;;;;;;;;;;;18.32;57.08;102395.31;5050807;28;1705;-38
2022/03/23 03:48:19;;;;;;;;;;;;;;;18.33;56.72;102405.06;5051519;28;1760;-38
2022/03/23 03:50:46;;;;;;;;;;;;;;;18.28;56.93;102403.53;5048780;28;1913;-38
2022/03/23 03:53:12;;;;;;;;;;;;;;;18.34;57.00;102404.09;5045038;28;1088;-39
2022/03/23 03:55:40;;;;;;;;;;;;;;;18.29;56.90;102391.84;5044748;28;1746;-38
2022/03/23 03:58:09;;;;;;;;;;;;;;;18.35;56.46;102400.50;5047994;28;1398;-38
2022/03/23 04:00:35;;;;;;;;;;;;;;;18.31;57.42;102398.94;5047514;28;1737;-38
2022/03/23 04:03:02;;;;;;;;;;;;;;;18.32;57.19;102409.53;5032980;28;1936;-38
2022/03/23 04:05:30;;;;;;;;;;;;;;;18.34;56.88;102404.97;5026082;28;1634;-39
2022/03/23 04:07:56;;;;;;;;;;;;;;;18.35;56.82;102411.19;5024339;28;995;-38
2022/03/23 04:10:23;;;;;;;;;;;;;;;18.34;56.63;102407.63;5024513;28;1910;-38
2022/03/23 04:12:50;;;;;;;;;;;;;;;18.38;56.76;102416.34;5028088;28;1458;-38
2022/03/23 04:15:19;;;;;;;;;;;;;;;18.31;57.16;102420.38;5025824;28;1672;-39
2022/03/23 04:17:45;;;;;;;;;;;;;;;18.37;55.97;102428.03;5026912;28;1309;-39
2022/03/23 04:20:12;;;;;;;;;;;;;;;18.35;56.84;102413.88;5024550;28;1170;-38
2022/03/23 04:22:40;;;;;;;;;;;;;;;18.35;56.38;102421.91;5034025;28;1684;-38
2022/03/23 04:25:08;;;;;;;;;;;;;;;18.43;56.21;102411.59;5034834;28;1756;-39
2022/03/23 04:27:35;;;;;;;;;;;;;;;18.36;56.77;102407.56;5026553;28;1395;-40
2022/03/23 04:30:01;;;;;;;;;;;;;;;18.36;56.24;102426.31;5027223;28;1074;-39
2022/03/23 04:32:28;;;;;;;;;;;;;;;18.31;56.52;102409.66;5029084;28;1977;-38
2022/03/23 04:34:54;;;;;;;;;;;;;;;18.33;56.29;102413.09;5023719;28;1608;-40
2022/03/23 04:37:21;;;;;;;;;;;;;;;18.30;56.91;102408.78;5028458;28;1584;-38
2022/03/23 04:39:48;;;;;;;;;;;;;;;18.29;57.24;102405.25;5031973;28;1469;-38
2022/03/23 04:42:16;;;;;;;;;;;;;;;18.27;56.80;102409.81;5025504;28;1637;-38
2022/03/23 04:44:42;;;;;;;;;;;;;;;18.28;56.34;102416.94;5028022;28;1277;-38
2022/03/23 04:47:10;;;;;;;;;;;;;;;18.34;55.87;102422.84;5023744;28;1918;-39
2022/03/23 04:49:40;;;;;;;;;;;;;;;18.26;56.63;102418.84;5021280;28;1778;-39
2022/03/23 04:52:07;;;;;;;;;;;;;;;18.32;57.23;102422.09;5026359;28;1976;-39
2022/03/23 04:54:33;;;;;;;;;;;;;;;18.29;56.83;102417.78;5030792;28;1743;-38
2022/03/23 04:57:01;;;;;;;;;;;;;;;18.32;56.41;102422.09;5027476;28;1397;-39
2022/03/23 04:59:27;;;;;;;;;;;;;;;18.47;55.52;102421.19;5024108;28;1687;-38
2022/03/23 05:01:54;;;;;;;;;;;;;;;18.54;56.71;102411.81;5032963;28;1854;-39
2022/03/23 05:04:20;;;;;;;;;;;;;;;18.59;56.34;102424.94;5025306;28;1454;-39
2022/03/23 05:06:47;;;;;;;;;;;;;;;18.51;56.89;102422.72;5022868;28;1154;-38
2022/03/23 05:09:13;;;;;;;;;;;;;;;18.46;57.00;102420.31;5032814;28;1921;-38
2022/03/23 05:11:39;;;;;;;;;;;;;;;18.57;57.28;102427.72;5025587;28;1980;-38
2022/03/23 05:14:07;;;;;;;;;;;;;;;19.01;55.42;102432.19;5024674;28;1684;-39
2022/03/23 05:16:34;;;;;;;;;;;;;;;19.14;55.37;102418.91;5024745;28;1142;-38
2022/03/23 05:19:01;;;;;;;;;;;;;;;19.37;54.66;102422.78;5026486;28;1750;-38
2022/03/23 05:21:27;;;;;;;;;;;;;;;19.55;54.89;102430.63;5021051;28;1683;-38
2022/03/23 05:23:53;;;;;;;;;;;;;;;19.71;53.89;102439.44;5033468;28;1545;-38
2022/03/23 05:26:20;;;;;;;;;;;;;;;19.83;53.20;102430.59;5021171;28;1317;-39
2022/03/23 05:28:46;;;;;;;;;;;;;;;19.89;53.65;102455.31;5023464;28;1138;-38
2022/03/23 05:31:14;;;;;;;;;;;;;;;20.24;52.50;102428.81;5040412;23;3620;-58
2022/03/23 05:33:41;;;;;;;;;;;;;;;20.43;52.85;102460.66;5026115;28;1750;-69
2022/03/23 05:36:08;;;;;;;;;;;;;;;20.40;52.46;102434.03;5030383;28;1539;-69
2022/03/23 05:38:35;;;;;;;;;;;;;;;20.32;53.62;102447.13;4989070;28;11034;-60
2022/03/23 05:41:01;;;;;;;;;;;;;;;20.23;52.90;102453.94;4996910;28;1518;-70
2022/03/23 05:43:28;;;;;;;;;;;;;;;20.17;53.30;102455.22;5009161;28;1411;-62
2022/03/23 05:45:54;;;;;;;;;;;;;;;20.12;53.98;102440.41;5010889;28;1451;-71
2022/03/23 05:48:22;;;;;;;;;;;;;;;19.96;54.54;102451.28;5015229;28;1379;-67
2022/03/23 05:50:49;;;;;;;;;;;;;;;19.99;54.24;102459.13;5015259;28;1903;-75
2022/03/23 05:53:16;;;;;;;;;;;;;;;19.94;54.95;102458.59;5016042;28;999;-61
2022/03/23 05:55:43;;;;;;;;;;;;;;;19.82;54.62;102460.25;5015214;28;1622;-59
2022/03/23 05:58:10;;;;;;;;;;;;;;;19.86;54.75;102459.94;5015114;28;1667;-58
2022/03/23 06:00:36;;;;;;;;;;;;;;;20.13;54.21;102479.69;5015173;28;1363;-60
2022/03/23 06:03:03;;;;;;;;;;;;;;;20.13;54.33;102459.06;5009585;28;1443;-59
2022/03/23 06:05:31;;;;;;;;;;;;;;;20.02;53.97;102450.88;5006315;28;1609;-59
2022/03/23 06:07:57;;;;;;;;;;;;;;;19.93;54.82;102467.59;5008236;28;975;-60
2022/03/23 06:10:24;;;;;;;;;;;;;;;19.87;54.83;102471.53;5014214;28;1714;-59
2022/03/23 06:12:50;;;;;;;;;;;;;;;19.86;54.48;102457.25;5011532;28;1910;-58
2022/03/23 06:15:18;;;;;;;;;;;;;;;19.83;54.85;102456.59;5014801;28;1630;-58
2022/03/23 06:17:44;;;;;;;;;;;;;;;19.98;55.40;102454.72;5014532;28;1424;-59
2022/03/23 06:20:13;;;;;;;;;;;;;;;20.00;54.61;102458.19;5004331;28;1070;-61
2022/03/23 06:22:41;;;;;;;;;;;;;;;19.96;55.97;102453.97;5014212;28;1961;-59
2022/03/23 06:25:08;;;;;;;;;;;;;;;19.80;54.60;102436.19;5025237;28;1412;-59
2022/03/23 06:27:35;;;;;;;;;;;;;;;19.88;54.61;102442.88;5014172;28;1455;-60
2022/03/23 06:30:01;;;;;;;;;;;;;;;19.88;54.89;102470.59;5019712;28;1266;-59
2022/03/23 06:32:28;;;;;;;;;;;;;;;19.89;54.01;102455.31;5025286;28;1913;-59
2022/03/23 06:34:55;;;;;;;;;;;;;;;19.93;55.28;102444.28;5029924;28;1681;-60
2022/03/23 06:37:22;;;;;;;;;;;;;;;19.87;55.54;102452.72;5030114;28;1466;-61
2022/03/23 06:39:50;;;;;;;;;;;;;;;19.90;55.54;102457.91;5033818;28;1438;-58
2022/03/23 06:42:17;;;;;;;;;;;;;;;19.95;56.37;102441.50;5030978;28;1376;-59
2022/03/23 06:44:43;;;;;;;;;;;;;;;19.95;56.37;102444.19;5025467;28;1386;-60
2022/03/23 06:47:10;;;;;;;;;;;;;;;19.92;55.95;102430.97;5026677;28;1393;-58
2022/03/23 06:49:36;;;;;;;;;;;;;;;19.93;56.77;102446.97;5029235;28;1585;-58
2022/03/23 06:52:03;;;;;;;;;;;;;;;20.00;56.52;102447.44;5024120;28;1989;-58
2022/03/23 06:54:30;;;;;;;;;;;;;;;19.95;57.21;102436.13;5026174;28;1439;-60
2022/03/23 06:56:57;;;;;;;;;;;;;;;20.00;57.55;102440.22;5029565;28;1462;-60
2022/03/23 06:59:24;;;;;;;;;;;;;;;20.08;56.86;102430.81;5023296;28;1621;-60
2022/03/23 07:01:51;;;;;;;;;;;;;;;20.09;57.30;102430.69;5033250;28;1512;-60
2022/03/23 07:04:17;;;;;;;;;;;;;;;20.03;56.50;102448.09;5023657;28;1170;-60
2022/03/23 07:06:44;;;;;;;;;;;;;;;20.03;57.65;102447.22;5033997;28;1307;-60
2022/03/23 07:11:55;;;;;;;;;;;;;;;19.92;57.54;102434.50;5039472;28;1906;-58
2022/03/23 07:14:23;;;;;;;;;;;;;;;19.94;57.76;102429.91;5027859;28;1426;-60
2022/03/23 07:16:50;;;;;;;;;;;;;;;19.92;56.83;102428.28;5031044;28;1321;-60
2022/03/23 07:19:17;;;;;;;;;;;;;;;19.88;57.09;102416.88;5029427;28;1511;-60
2022/03/23 07:21:43;;;;;;;;;;;;;;;19.97;57.67;102423.47;5021699;28;1646;-62
2022/03/23 07:24:10;;;;;;;;;;;;;;;20.09;57.34;102430.69;5017642;28;1626;-60
2022/03/23 07:26:37;;;;;;;;;;;;;;;19.97;57.39;102447.63;5021788;28;1436;-59
2022/03/23 07:29:04;;;;;;;;;;;;;;;18.45;53.99;102449.88;5021384;28;1606;-62
2022/03/23 07:31:32;;;;;;;;;;;;;;;18.94;54.07;102430.88;5023502;28;1967;-60
2022/03/23 07:33:58;;;;;;;;;;;;;;;19.17;52.14;102442.84;5022025;28;1740;-60
2022/03/23 07:36:25;;;;;;;;;;;;;;;19.31;51.71;102433.91;5029092;28;1676;-60
2022/03/23 07:38:52;;;;;;;;;;;;;;;19.36;51.37;102431.81;5026568;28;1590;-60
2022/03/23 07:41:18;;;;;;;;;;;;;;;19.40;51.24;102435.19;5025895;28;1082;-62
2022/03/23 07:43:45;;;;;;;;;;;;;;;19.45;50.82;102422.31;5037860;28;1064;-59
2022/03/23 07:46:11;;;;;;;;;;;;;;;19.44;52.06;102417.94;5037014;28;1414;-62
2022/03/23 07:48:39;;;;;;;;;;;;;;;19.45;51.40;102430.38;5027118;28;1780;-60
2022/03/23 07:51:06;;;;;;;;;;;;;;;19.36;51.70;102428.25;5027501;28;1581;-62
2022/03/23 07:53:32;;;;;;;;;;;;;;;19.41;51.64;102418.09;5035323;28;1903;-62
2022/03/23 07:55:59;;;;;;;;;;;;;;;19.40;50.61;102411.88;5037033;28;1341;-61
2022/03/23 07:58:28;;;;;;;;;;;;;;;19.43;50.81;102426.91;5025791;28;1356;-62
2022/03/23 08:00:55;;;;;;;;;;;;;;;19.39;50.68;102415.50;5023379;28;1725;-62
2022/03/23 08:03:21;;;;;;;;;;;;;;;19.37;49.40;102417.44;5027434;28;1605;-59
2022/03/23 08:05:50;;;;;;;;;;;;;;;19.40;49.17;102417.25;5027813;28;1558;-60
2022/03/23 08:08:16;;;;;;;;;;;;;;;19.36;50.23;102407.69;5032892;28;962;-61
2022/03/23 08:10:43;;;;;;;;;;;;;;;19.37;49.15;102412.06;5036853;28;1544;-62
2022/03/23 08:13:10;;;;;;;;;;;;;;;19.37;51.14;102417.44;5036487;28;1906;-61
2022/03/23 08:15:36;;;;;;;;;;;;;;;19.34;50.53;102406.03;5036739;28;1222;-62
2022/03/23 08:18:03;;;;;;;;;;;;;;;19.41;51.68;102410.91;5031030;28;1617;-62
2022/03/23 08:20:36;;;;;;;;;;;;;;;19.37;50.56;102404.03;5030984;28;1445;-61
2022/03/23 08:23:05;;;;;;;;;;;;;;;19.33;50.45;102398.97;5037159;28;1016;-60
2022/03/23 08:25:31;;;;;;;;;;;;;;;19.33;51.16;102394.44;5027045;28;1685;-60
2022/03/23 08:27:59;;;;;;;;;;;;;;;19.33;49.78;102399.81;5026389;28;1653;-60
2022/03/23 08:30:26;;;;;;;;;;;;;;;19.34;51.31;102392.63;5025625;28;1281;-62
2022/03/23 08:32:52;;;;;;;;;;;;;;;19.34;50.78;102404.22;5026861;28;1902;-60
2022/03/23 08:35:19;;;;;;;;;;;;;;;19.36;50.04;102383.53;5029012;28;1195;-60
2022/03/23 08:37:46;;;;;;;;;;;;;;;19.28;49.43;102399.25;5037135;28;974;-62
2022/03/23 08:40:14;;;;;;;;;;;;;;;19.37;50.18;102387.94;5036089;28;1325;-62
2022/03/23 08:42:40;;;;;;;;;;;;;;;19.40;49.04;102384.22;5035880;28;1288;-62
2022/03/23 08:45:07;;;;;;;;;;;;;;;19.31;50.14;102380.28;5032676;28;1565;-62
2022/03/23 08:47:35;;;;;;;;;;;;;;;19.37;49.15;102385.25;5025963;28;1578;-62
2022/03/23 08:50:01;;;;;;;;;;;;;;;19.32;48.56;102376.66;5027558;28;1857;-60
2022/03/23 08:52:29;;;;;;;;;;;;;;;19.36;48.91;102379.97;5036467;28;1972;-61
2022/03/23 08:54:55;;;;;;;;;;;;;;;19.34;48.70;102381.88;5035689;28;1607;-60
2022/03/23 08:57:23;;;;;;;;;;;;;;;19.39;48.66;102361.88;5033342;28;1272;-62
2022/03/23 08:59:50;;;;;;;;;;;;;;;19.37;48.97;102357.56;5024741;28;1610;-62
2022/03/23 09:02:17;;;;;;;;;;;;;;;19.33;48.85;102372.13;5024484;28;1578;-62
2022/03/23 09:04:44;;;;;;;;;;;;;;;19.40;48.31;102379.69;5026258;28;1614;-60
2022/03/23 09:07:10;;;;;;;;;;;;;;;19.37;48.19;102376.34;5025883;28;1051;-60
2022/03/23 09:09:37;;;;;;;;;;;;;;;19.28;48.37;102359.88;5035559;28;1536;-60
2022/03/23 09:12:03;;;;;;;;;;;;;;;19.35;48.01;102357.66;5033273;28;1980;-63
2022/03/23 09:14:31;;;;;;;;;;;;;;;19.39;47.95;102359.19;5024468;28;1601;-62
2022/03/23 09:16:58;;;;;;;;;;;;;;;19.33;48.86;102354.22;5031306;28;1394;-62
2022/03/23 09:19:24;;;;;;;;;;;;;;;19.35;48.43;102346.94;5036456;28;1060;-60
2022/03/23 09:21:51;;;;;;;;;;;;;;;19.37;48.25;102354.88;5031109;28;1725;-62
2022/03/23 09:24:19;;;;;;;;;;;;;;;19.26;48.18;102359.13;5026130;28;1632;-61
2022/03/23 09:26:45;;;;;;;;;;;;;;;19.35;47.84;102338.88;5024794;28;1542;-62
2022/03/23 09:29:12;;;;;;;;;;;;;;;19.34;48.69;102328.25;5025371;28;1601;-61
2022/03/23 09:31:40;;;;;;;;;;;;;;;19.33;48.00;102334.59;5024751;28;1043;-62
2022/03/23 09:34:07;;;;;;;;;;;;;;;19.28;47.48;102329.53;5035707;28;1910;-61
2022/03/23 09:39:17;;;;;;;;;;;;;;;19.36;47.82;102337.06;5017668;28;1517;-62
2022/03/23 09:41:45;;;;;;;;;;;;;;;19.46;48.69;102336.38;5025812;28;1375;-59
2022/03/23 09:44:12;;;;;;;;;;;;;;;19.39;47.95;102321.63;5034622;28;1368;-62
2022/03/23 09:46:40;;;;;;;;;;;;;;;19.39;47.50;102327.00;5024558;28;974;-58
2022/03/23 09:49:07;;;;;;;;;;;;;;;19.39;47.69;102321.63;5035564;28;971;-57
2022/03/23 09:51:34;;;;;;;;;;;;;;;19.48;46.79;102334.44;5023803;28;1763;-64
2022/03/23 09:54:02;;;;;;;;;;;;;;;19.54;47.21;102318.91;5033604;28;1910;-62
2022/03/23 09:56:29;;;;;;;;;;;;;;;19.60;47.71;102315.81;5021719;28;1427;-62
2022/03/23 09:58:55;;;;;;;;;;;;;;;19.61;48.59;102320.22;5024885;28;994;-60
2022/03/23 10:01:49;;;;;;;;;;;;;;;19.69;49.00;102323.25;5034885;28;1572;-56
2022/03/23 10:04:30;;;;;;;;;;;;;;;19.60;48.69;102318.50;5034147;28;1971;-58
2022/03/23 10:07:04;;;;;;;;;;;;;;;19.53;47.42;102293.88;5029620;28;1825;-58
2022/03/23 10:10:04;;;;;;;;;;;;;;;19.62;49.42;102297.78;5027840;28;1611;-58
2022/03/23 10:13:01;;;;;;;;;;;;;;;19.57;49.40;102299.91;5019633;28;1910;-58
2022/03/23 10:15:45;;;;;;;;;;;;;;;19.62;48.68;102287.06;5028639;28;1563;-57
2022/03/23 10:18:33;;;;;;;;;;;;;;;19.65;50.61;102282.31;5020522;28;1551;-57
2022/03/23 10:20:59;;;;;;;;;;;;;;;19.54;49.63;102284.88;4999336;28;1751;-57
2022/03/23 10:23:27;;;;;;;;;;;;;;;19.58;51.69;102259.56;5031722;28;1026;-59
2022/03/23 10:25:55;;;;;;;;;;;;;;;19.50;51.76;102261.03;5030278;28;1360;-56
2022/03/23 10:28:22;;;;;;;;;;;;;;;19.50;50.62;102255.66;5029658;28;1543;-58
2022/03/23 10:30:48;;;;;;;;;;;;;;;19.53;50.45;102276.94;5024835;28;1431;-60
2022/03/23 10:33:18;;;;;;;;;;;;;;;19.52;48.17;102256.41;5030242;28;1906;-58
2022/03/23 10:35:45;;;;;;;;;;;;;;;19.57;48.92;102252.47;5031681;28;1570;-58
2022/03/23 10:38:13;;;;;;;;;;;;;;;19.68;50.57;102259.81;5025999;28;1079;-56
2022/03/23 10:40:41;;;;;;;;;;;;;;;19.67;49.41;102252.72;5034102;28;1680;-58
2022/03/23 10:43:09;;;;;;;;;;;;;;;19.63;48.18;102235.09;5025430;28;1578;-56
2022/03/23 10:45:35;;;;;;;;;;;;;;;19.59;49.54;102236.28;5027805;28;1641;-60
2022/03/23 10:48:09;;;;;;;;;;;;;;;19.51;50.06;102235.94;5031102;28;1542;-58
2022/03/23 10:50:36;;;;;;;;;;;;;;;19.51;48.12;102215.31;5033909;28;1411;-56
2022/03/23 10:53:04;;;;;;;;;;;;;;;19.45;47.21;102216.59;5034648;28;1975;-59
2022/03/23 10:55:32;;;;;;;;;;;;;;;19.50;45.42;102218.09;5024638;28;1258;-55
2022/03/23 10:58:25;;;;;;;;;;;;;;;19.58;46.46;102192.47;5024597;28;1594;-58
2022/03/23 11:00:56;;;;;;;;;;;;;;;19.54;46.95;102203.53;5020228;28;1867;-57
2022/03/23 11:03:34;;;;;;;;;;;;;;;19.56;47.79;102202.47;5027919;28;1273;-58
2022/03/23 11:06:01;;;;;;;;;;;;;;;19.61;47.30;102186.03;5029386;28;1338;-59
2022/03/23 11:08:28;;;;;;;;;;;;;;;19.83;47.90;102180.94;5019833;28;1397;-57
2022/03/23 11:16:30;;;;;;;;;;;;;;;20.88;46.54;102169.94;5029861;28;1267;-58
2022/03/23 11:19:06;;;;;;;;;;;;;;;20.77;46.47;102157.28;5034339;28;1517;-59
2022/03/23 11:21:33;;;;;;;;;;;;;;;20.80;47.27;102152.53;5024536;28;1341;-58
2022/03/23 11:23:59;;;;;;;;;;;;;;;21.11;48.92;102154.75;5036710;28;1736;-59
2022/03/23 11:26:27;;;;;;;;;;;;;;;21.19;49.30;102147.84;5029088;28;1359;-56
2022/03/23 11:28:54;;;;;;;;;;;;;;;21.01;50.11;102141.19;5027800;28;1389;-60
2022/03/23 11:31:21;;;;;;;;;;;;;;;21.08;49.76;102130.81;5035532;28;1744;-58
2022/03/23 11:33:50;;;;;;;;;;;;;;;20.99;50.09;102135.03;5036908;28;1906;-58
2022/03/23 11:36:19;;;;;;;;;;;;;;;21.02;49.90;102135.66;5023104;28;1576;-60
2022/03/23 11:38:48;;;;;;;;;;;;;;;20.92;49.93;102131.97;5032945;28;1332;-59
2022/03/23 11:41:15;;;;;;;;;;;;;;;20.76;50.25;102129.56;5037353;28;1196;-58
2022/03/23 11:43:42;;;;;;;;;;;;;;;20.68;51.58;102123.03;5040069;28;1413;-59
2022/03/23 11:46:08;;;;;;;;;;;;;;;20.57;52.00;102135.41;5025933;28;1756;-59
2022/03/23 11:48:55;;;;;;;;;;;;;;;20.52;51.90;102120.59;5037109;28;1520;-59
2022/03/23 11:51:31;;;;;;;;;;;;;;;20.46;52.48;102117.38;5023111;28;1551;-59
2022/03/23 11:54:03;;;;;;;;;;;;;;;20.36;52.89;102112.78;5029947;28;1910;-59
2022/03/23 11:56:36;;;;;;;;;;;;;;;20.25;52.67;102118.94;5036734;28;1652;-58
2022/03/23 11:59:18;;;;;;;;;;;;;;;20.19;52.23;102100.56;5034536;28;1342;-61
2022/03/23 12:01:44;;;;;;;;;;;;;;;20.34;52.49;102109.38;5026568;28;1626;-56
2022/03/23 12:04:14;;;;;;;;;;;;;;;20.35;53.57;102111.06;5034197;28;1382;-59
2022/03/23 12:06:43;;;;;;;;;;;;;;;20.54;53.33;102105.22;5023068;28;1589;-56
2022/03/23 12:09:10;;;;;;;;;;;;;;;20.88;54.19;102092.81;5026674;28;1549;-57
2022/03/23 12:11:50;;;;;;;;;;;;;;;21.18;52.39;102092.31;5023027;28;1445;-54
2022/03/23 12:14:21;;;;;;;;;;;;;;;20.86;52.62;102092.09;5021814;28;1971;-54
2022/03/23 12:17:10;;;;;;;;;;;;;;;20.40;54.36;102090.09;5024855;28;1316;-53
2022/03/23 12:19:56;;;;;;;;;;;;;;;20.18;55.32;102083.59;5022765;28;1536;-61
2022/03/23 12:22:55;;;;;;;;;;;;;;;20.11;55.31;102074.25;5023553;28;1558;-63
2022/03/23 12:25:27;;;;;;;;;;;;;;;20.20;54.41;102073.59;5018337;28;1737;-53
2022/03/23 12:27:59;;;;;;;;;;;;;;;20.18;55.58;102088.97;5022687;28;1529;-62
2022/03/23 12:30:35;;;;;;;;;;;;;;;20.18;55.60;102080.06;5028548;28;1384;-64
2022/03/23 12:33:11;;;;;;;;;;;;;;;20.04;55.92;102070.31;5031462;28;2005;-58
2022/03/23 12:35:38;;;;;;;;;;;;;;;19.94;56.25;102066.59;5030468;28;1358;-56
2022/03/23 12:38:06;;;;;;;;;;;;;;;19.88;56.71;102065.19;5031542;28;1362;-59
2022/03/23 12:40:38;;;;;;;;;;;;;;;19.89;55.52;102058.84;5035310;28;1485;-58
2022/03/23 12:43:05;;;;;;;;;;;;;;;19.83;55.99;102059.28;5027878;28;1452;-57
2022/03/23 12:45:33;;;;;;;;;;;;;;;19.73;56.05;102053.72;5032327;28;1467;-70
2022/03/23 12:48:05;;;;;;;;;;;;;;;19.74;55.77;102050.06;5036173;28;1433;-55
2022/03/23 12:58:59;;;;;;;;;;;;;;;19.66;57.03;102034.47;4975817;28;1345;-62
2022/03/23 13:01:30;;;;;;;;;;;;;;;19.60;56.25;102026.03;5013356;28;1429;-64
2022/03/23 13:03:56;;;;;;;;;;;;;;;19.67;56.52;102027.28;5040798;28;1744;-68
2022/03/23 13:06:33;;;;;;;;;;;;;;;19.94;56.88;102035.22;5027602;28;1509;-64
2022/03/23 13:09:00;;;;;;;;;;;;;;;19.79;57.78;102026.44;5028705;28;1486;-57
2022/03/23 13:11:29;;;;;;;;;;;;;;;19.66;56.72;102036.31;5033699;28;1385;-56
2022/03/23 13:13:57;;;;;;;;;;;;;;;19.56;57.12;102030.75;5024536;28;1985;-57
2022/03/23 13:16:25;;;;;;;;;;;;;;;19.57;57.95;102035.13;5022054;28;1602;-58
2022/03/23 13:18:54;;;;;;;;;;;;;;;19.53;57.74;102040.81;5032179;28;1541;-57
2022/03/23 13:21:22;;;;;;;;;;;;;;;19.66;56.88;102026.44;5025648;28;1748;-55
2022/03/23 13:23:49;;;;;;;;;;;;;;;19.64;57.55;102032.88;5029988;28;1311;-55